createdAt,value
2018-07-08T00:01:32.151Z,97.70
2018-07-08T00:04:00.615Z,97.90
2018-07-08T00:06:28.990Z,98.30
2018-07-08T00:08:57.407Z,98.00
2018-07-08T00:11:25.820Z,97.80
2018-07-08T00:13:54.246Z,98.00
2018-07-08T00:16:22.693Z,98.00
2018-07-08T00:18:51.436Z,98.20
2018-07-08T00:21:19.878Z,98.40
2018-07-08T00:23:48.360Z,98.80
2018-07-08T00:26:16.784Z,99.20
2018-07-08T00:28:45.183Z,99.30
2018-07-08T00:31:13.603Z,99.30
2018-07-08T00:33:42.022Z,99.40
2018-07-08T00:36:10.450Z,99.50
2018-07-08T00:38:38.906Z,99.30
2018-07-08T00:41:07.318Z,99.30
2018-07-08T00:43:35.830Z,99.20
2018-07-08T00:46:04.208Z,98.90
2018-07-08T00:48:32.655Z,99.30
2018-07-08T00:51:01.058Z,99.60
2018-07-08T00:53:29.482Z,99.70
2018-07-08T00:55:57.887Z,99.90
2018-07-08T00:58:26.275Z,99.80
2018-07-08T01:00:54.689Z,99.90
2018-07-08T01:03:23.102Z,99.90
2018-07-08T01:05:51.493Z,99.90
2018-07-08T01:08:19.861Z,99.90
2018-07-08T01:10:48.289Z,99.90
2018-07-08T01:13:16.669Z,99.90
2018-07-08T01:18:13.206Z,99.90
2018-07-08T01:20:41.658Z,99.90
2018-07-08T01:23:10.338Z,99.90
2018-07-08T01:25:50.248Z,99.90
2018-07-08T01:28:18.942Z,99.90
2018-07-08T01:30:47.473Z,99.90
2018-07-08T01:33:15.884Z,99.90
2018-07-08T01:35:44.288Z,99.90
2018-07-08T01:38:12.638Z,99.90
2018-07-08T01:40:41.053Z,99.90
2018-07-08T01:43:09.528Z,99.90
2018-07-08T01:45:38.038Z,99.90
2018-07-08T01:48:06.466Z,99.90
2018-07-08T01:50:34.887Z,99.90
2018-07-08T01:53:03.270Z,99.90
2018-07-08T01:55:31.982Z,99.90
2018-07-08T01:58:00.531Z,99.90
2018-07-08T02:00:28.965Z,99.90
2018-07-08T02:02:57.437Z,99.90
2018-07-08T02:05:25.857Z,99.90
2018-07-08T02:07:54.662Z,99.90
2018-07-08T02:10:23.147Z,99.90
2018-07-08T02:12:51.591Z,99.90
2018-07-08T02:15:20.023Z,99.90
2018-07-08T02:17:48.476Z,99.90
2018-07-08T02:20:16.966Z,99.90
2018-07-08T02:22:45.962Z,99.90
2018-07-08T02:25:14.360Z,99.90
2018-07-08T02:27:42.870Z,99.90
2018-07-08T02:30:11.264Z,99.90
2018-07-08T02:32:39.956Z,99.90
2018-07-08T02:35:08.388Z,99.90
2018-07-08T02:37:36.811Z,99.90
2018-07-08T02:40:05.526Z,99.90
2018-07-08T02:42:33.976Z,99.90
2018-07-08T02:45:02.434Z,99.90
2018-07-08T02:47:30.832Z,99.90
2018-07-08T02:49:59.190Z,99.90
2018-07-08T02:52:27.567Z,99.90
2018-07-08T02:54:55.955Z,99.90
2018-07-08T02:57:24.365Z,99.90
2018-07-08T02:59:52.806Z,99.90
2018-07-08T03:02:21.311Z,99.90
2018-07-08T03:04:49.711Z,99.90
2018-07-08T03:07:18.106Z,99.90
2018-07-08T03:09:46.458Z,99.90
2018-07-08T03:12:14.880Z,99.90
2018-07-08T03:14:43.246Z,99.90
2018-07-08T03:17:11.626Z,99.90
2018-07-08T03:19:40.015Z,99.90
2018-07-08T03:22:08.405Z,99.90
2018-07-08T03:24:36.795Z,99.90
2018-07-08T03:27:05.249Z,99.90
2018-07-08T03:29:33.617Z,99.90
2018-07-08T03:32:02.068Z,99.90
2018-07-08T03:34:30.453Z,99.90
2018-07-08T03:36:58.865Z,99.90
2018-07-08T03:39:27.232Z,99.90
2018-07-08T03:41:55.634Z,99.90
2018-07-08T03:46:52.096Z,99.90
2018-07-08T03:49:20.482Z,99.90
2018-07-08T03:53:18.119Z,99.90
2018-07-08T03:58:14.680Z,99.90
2018-07-08T04:00:43.049Z,99.90
2018-07-08T04:03:11.516Z,99.90
2018-07-08T04:05:39.910Z,99.90
2018-07-08T04:08:08.332Z,99.90
2018-07-08T04:10:36.715Z,99.90
2018-07-08T04:13:05.163Z,99.90
2018-07-08T04:15:33.573Z,99.90
2018-07-08T04:18:09.507Z,99.90
2018-07-08T04:20:39.142Z,99.90
2018-07-08T04:23:07.891Z,99.90
2018-07-08T04:25:36.285Z,99.90
2018-07-08T04:28:05.065Z,99.90
2018-07-08T04:30:33.502Z,99.90
2018-07-08T04:33:02.210Z,99.90
2018-07-08T04:35:30.692Z,99.90
2018-07-08T04:37:59.824Z,99.90
2018-07-08T04:40:28.340Z,99.90
2018-07-08T04:42:56.762Z,99.90
2018-07-08T04:45:25.202Z,99.90
2018-07-08T04:47:53.663Z,99.90
2018-07-08T04:50:22.053Z,99.90
2018-07-08T04:52:50.475Z,99.90
2018-07-08T04:55:18.833Z,99.90
2018-07-08T04:57:47.255Z,99.90
2018-07-08T05:00:15.646Z,99.90
2018-07-08T05:02:44.085Z,99.90
2018-07-08T05:05:12.554Z,99.90
2018-07-08T05:07:40.993Z,99.90
2018-07-08T05:10:09.415Z,99.90
2018-07-08T05:12:37.832Z,99.90
2018-07-08T05:15:06.328Z,99.80
2018-07-08T05:17:34.720Z,99.50
2018-07-08T05:20:03.198Z,98.70
2018-07-08T05:22:31.572Z,99.20
2018-07-08T05:24:59.991Z,98.60
2018-07-08T05:27:28.455Z,98.30
2018-07-08T05:29:56.992Z,97.70
2018-07-08T05:32:25.401Z,97.10
2018-07-08T05:34:53.839Z,95.90
2018-07-08T05:37:22.246Z,96.90
2018-07-08T05:39:57.106Z,93.30
2018-07-08T05:42:25.575Z,92.70
2018-07-08T05:44:54.103Z,90.60
2018-07-08T05:47:22.491Z,91.40
2018-07-08T05:49:50.940Z,91.70
2018-07-08T05:54:47.616Z,86.00
2018-07-08T05:57:16.014Z,84.00
2018-07-08T05:59:44.425Z,87.40
2018-07-08T06:02:13.373Z,81.50
2018-07-08T06:04:41.852Z,78.30
2018-07-08T06:07:10.463Z,77.90
2018-07-08T06:09:38.846Z,77.60
2018-07-08T06:12:07.629Z,73.70
2018-07-08T06:14:36.082Z,75.40
2018-07-08T06:17:04.588Z,76.00
2018-07-08T06:19:32.995Z,72.90
2018-07-08T06:22:01.445Z,70.00
2018-07-08T06:24:29.889Z,67.60
2018-07-08T06:26:58.372Z,65.90
2018-07-08T06:29:26.944Z,62.00
2018-07-08T06:31:55.368Z,61.80
2018-07-08T06:34:23.808Z,58.90
2018-07-08T06:36:52.216Z,55.30
2018-07-08T06:39:20.638Z,53.50
2018-07-08T06:41:49.015Z,55.90
2018-07-08T06:44:17.408Z,55.20
2018-07-08T06:46:45.806Z,51.90
2018-07-08T06:49:14.211Z,50.00
2018-07-08T06:51:42.604Z,52.90
2018-07-08T06:54:11.021Z,50.40
2018-07-08T06:56:39.395Z,55.00
2018-07-08T06:59:07.766Z,59.50
2018-07-08T07:01:36.156Z,57.90
2018-07-08T07:04:04.608Z,55.60
2018-07-08T07:06:33.010Z,53.20
2018-07-08T07:09:01.464Z,53.50
2018-07-08T07:11:29.888Z,54.70
2018-07-08T07:13:58.296Z,53.50
2018-07-08T07:16:26.713Z,52.80
2018-07-08T07:18:55.105Z,49.70
2018-07-08T07:21:23.572Z,52.80
2018-07-08T07:23:51.910Z,51.20
2018-07-08T07:26:20.274Z,51.30
2018-07-08T07:28:48.667Z,47.50
2018-07-08T07:31:17.084Z,51.20
2018-07-08T07:33:45.455Z,49.80
2018-07-08T07:36:13.942Z,49.20
2018-07-08T07:38:42.328Z,50.10
2018-07-08T07:41:10.733Z,47.70
2018-07-08T07:43:39.119Z,48.10
2018-07-08T07:46:07.622Z,48.70
2018-07-08T07:48:36.182Z,46.30
2018-07-08T07:51:04.550Z,49.10
2018-07-08T07:53:32.929Z,47.80
2018-07-08T07:56:01.358Z,47.40
2018-07-08T07:58:29.791Z,49.00
2018-07-08T08:00:58.272Z,48.30
2018-07-08T08:03:26.719Z,48.70
2018-07-08T08:05:55.157Z,45.70
2018-07-08T08:08:23.608Z,45.70
2018-07-08T08:10:51.993Z,46.20
2018-07-08T08:13:20.391Z,47.50
2018-07-08T08:15:48.845Z,46.40
2018-07-08T08:18:17.217Z,47.70
2018-07-08T08:20:45.621Z,47.30
2018-07-08T08:23:14.001Z,47.60
2018-07-08T08:25:42.390Z,49.10
2018-07-08T08:28:10.753Z,47.00
2018-07-08T08:30:39.295Z,48.80
2018-07-08T08:33:07.794Z,48.80
2018-07-08T08:35:36.203Z,47.80
2018-07-08T08:38:04.872Z,49.30
2018-07-08T08:43:01.522Z,50.20
2018-07-08T08:45:30.283Z,47.80
2018-07-08T08:47:58.681Z,48.00
2018-07-08T08:50:27.094Z,49.30
2018-07-08T08:52:55.484Z,48.60
2018-07-08T08:55:23.880Z,46.90
2018-07-08T08:57:52.298Z,45.90
2018-07-08T09:00:21.112Z,46.50
2018-07-08T09:02:49.512Z,47.70
2018-07-08T09:05:17.886Z,48.30
2018-07-08T09:07:46.418Z,48.50
2018-07-08T09:10:14.838Z,47.40
2018-07-08T09:12:43.243Z,45.80
2018-07-08T09:15:11.656Z,48.00
2018-07-08T09:17:40.102Z,49.30
2018-07-08T09:20:08.542Z,49.50
2018-07-08T09:22:36.940Z,47.70
2018-07-08T09:25:05.827Z,47.80
2018-07-08T09:27:34.302Z,50.90
2018-07-08T09:30:02.772Z,53.90
2018-07-08T09:32:31.241Z,54.00
2018-07-08T09:34:59.690Z,55.10
2018-07-08T09:37:28.098Z,54.70
2018-07-08T09:39:56.530Z,54.70
2018-07-08T09:42:25.004Z,56.00
2018-07-08T09:44:53.589Z,58.50
2018-07-08T09:47:22.011Z,58.80
2018-07-08T09:49:50.462Z,59.90
2018-07-08T09:52:18.870Z,61.60
2018-07-08T09:54:47.310Z,61.60
2018-07-08T09:57:15.825Z,64.00
2018-07-08T09:59:44.304Z,63.50
2018-07-08T10:02:12.788Z,62.10
2018-07-08T10:04:41.277Z,63.50
2018-07-08T10:07:09.717Z,62.60
2018-07-08T10:09:38.126Z,61.10
2018-07-08T10:14:34.671Z,62.20
2018-07-08T10:17:03.080Z,64.30
2018-07-08T10:19:31.524Z,64.00
2018-07-08T10:21:59.965Z,62.70
2018-07-08T10:24:28.351Z,64.80
2018-07-08T10:27:22.190Z,65.20
2018-07-08T10:29:50.639Z,63.80
2018-07-08T10:32:19.132Z,64.20
2018-07-08T10:34:47.566Z,65.90
2018-07-08T10:37:16.015Z,65.20
2018-07-08T10:39:44.490Z,65.00
2018-07-08T10:42:12.975Z,66.10
2018-07-08T10:44:41.428Z,65.80
2018-07-08T10:47:09.822Z,66.50
2018-07-08T10:49:38.256Z,66.70
2018-07-08T10:52:06.760Z,67.20
2018-07-08T10:54:35.134Z,66.90
2018-07-08T10:59:32.273Z,68.00
2018-07-08T11:02:00.688Z,67.80
2018-07-08T11:04:29.104Z,67.80
2018-07-08T11:06:57.578Z,68.30
2018-07-08T11:09:26.043Z,67.90
2018-07-08T11:11:54.944Z,67.20
2018-07-08T11:14:23.367Z,66.50
2018-07-08T11:16:51.794Z,67.60
2018-07-08T11:19:20.209Z,67.90
2018-07-08T11:21:48.635Z,67.50
2018-07-08T11:24:17.040Z,66.70
2018-07-08T11:26:45.501Z,67.40
2018-07-08T11:29:13.896Z,68.20
2018-07-08T11:31:42.286Z,68.90
2018-07-08T11:34:10.717Z,67.80
2018-07-08T11:36:39.101Z,68.70
2018-07-08T11:41:35.651Z,66.20
2018-07-08T11:44:04.281Z,66.60
2018-07-08T11:46:32.745Z,66.50
2018-07-08T11:49:01.173Z,66.10
2018-07-08T11:51:30.008Z,67.90
2018-07-08T11:53:58.475Z,65.30
2018-07-08T11:56:26.870Z,66.50
2018-07-08T11:58:55.328Z,65.30
2018-07-08T12:01:23.768Z,65.00
2018-07-08T12:03:52.240Z,65.40
2018-07-08T12:06:20.638Z,65.00
2018-07-08T12:08:49.122Z,65.70
2018-07-08T12:11:17.535Z,64.30
2018-07-08T12:13:46.029Z,65.60
2018-07-08T12:16:14.452Z,64.70
2018-07-08T12:18:42.868Z,64.00
2018-07-08T12:21:11.291Z,65.20
2018-07-08T12:23:40.566Z,65.10
2018-07-08T12:26:09.012Z,65.70
2018-07-08T12:28:37.475Z,66.40
2018-07-08T12:31:05.902Z,66.00
2018-07-08T12:33:34.286Z,66.70
2018-07-08T12:36:02.657Z,67.80
2018-07-08T12:38:31.147Z,65.20
2018-07-08T12:40:59.557Z,65.10
2018-07-08T12:43:28.023Z,66.00
2018-07-08T12:45:56.417Z,66.90
2018-07-08T12:48:24.824Z,64.50
2018-07-08T12:50:53.256Z,66.90
2018-07-08T12:53:21.684Z,67.30
2018-07-08T12:55:50.112Z,66.30
2018-07-08T12:58:18.519Z,67.20
2018-07-08T13:00:46.926Z,66.00
2018-07-08T13:03:15.343Z,66.60
2018-07-08T13:05:43.773Z,67.70
2018-07-08T13:08:12.318Z,66.20
2018-07-08T13:10:40.704Z,68.10
2018-07-08T13:13:09.103Z,66.00
2018-07-08T13:15:37.480Z,65.60
2018-07-08T13:18:05.878Z,65.00
2018-07-08T13:20:34.327Z,66.00
2018-07-08T13:23:02.802Z,66.20
2018-07-08T13:25:31.250Z,68.20
2018-07-08T13:27:59.634Z,68.60
2018-07-08T13:30:28.033Z,67.40
2018-07-08T13:32:56.626Z,67.00
2018-07-08T13:35:25.126Z,68.10
2018-07-08T13:37:53.559Z,67.40
2018-07-08T13:40:22.100Z,68.20
2018-07-08T13:42:50.574Z,66.30
2018-07-08T13:45:19.033Z,66.00
2018-07-08T13:47:47.461Z,65.30
2018-07-08T13:50:15.860Z,65.10
2018-07-08T13:52:44.302Z,66.70
2018-07-08T13:55:12.768Z,66.00
2018-07-08T13:57:41.223Z,67.50
2018-07-08T14:00:09.661Z,66.60
2018-07-08T14:02:38.042Z,66.60
2018-07-08T14:05:06.486Z,67.60
2018-07-08T14:07:34.902Z,67.50
2018-07-08T14:10:03.367Z,68.10
2018-07-08T14:12:31.818Z,68.70
2018-07-08T14:15:00.212Z,68.20
2018-07-08T14:19:56.724Z,68.30
2018-07-08T14:22:25.341Z,68.50
2018-07-08T14:24:53.818Z,69.10
2018-07-08T14:27:22.370Z,71.40
2018-07-08T14:29:50.834Z,70.00
2018-07-08T14:33:22.401Z,70.40
2018-07-08T14:35:50.887Z,70.80
2018-07-08T14:38:19.356Z,71.50
2018-07-08T14:40:47.851Z,72.20
2018-07-08T14:43:16.255Z,70.70
2018-07-08T14:45:44.710Z,70.80
2018-07-08T14:48:13.179Z,70.80
2018-07-08T14:50:41.578Z,70.80
2018-07-08T14:53:10.298Z,69.50
2018-07-08T14:55:38.748Z,69.40
2018-07-08T14:58:07.170Z,70.60
2018-07-08T15:00:35.629Z,70.90
2018-07-08T15:03:04.074Z,70.90
2018-07-08T15:05:32.490Z,73.00
2018-07-08T15:08:00.874Z,71.60
2018-07-08T15:10:29.327Z,71.30
2018-07-08T15:12:57.691Z,71.80
2018-07-08T15:15:26.173Z,72.60
2018-07-08T15:17:54.743Z,72.10
2018-07-08T15:20:23.203Z,73.20
2018-07-08T15:22:51.680Z,72.90
2018-07-08T15:25:20.132Z,72.40
2018-07-08T15:27:48.502Z,72.40
2018-07-08T15:30:16.875Z,70.50
2018-07-08T15:32:45.394Z,72.00
2018-07-08T15:35:13.991Z,70.90
2018-07-08T15:37:42.420Z,70.50
2018-07-08T15:40:10.866Z,70.40
2018-07-08T15:42:39.398Z,70.60
2018-07-08T15:47:36.467Z,70.20
2018-07-08T15:50:05.088Z,70.50
2018-07-08T15:52:33.744Z,69.50
2018-07-08T15:55:02.099Z,71.00
2018-07-08T15:57:30.652Z,71.50
2018-07-08T15:59:59.228Z,71.60
2018-07-08T16:02:27.690Z,73.00
2018-07-08T16:04:56.341Z,72.60
2018-07-08T16:07:24.705Z,73.00
2018-07-08T16:09:53.203Z,73.50
2018-07-08T16:12:21.575Z,74.30
2018-07-08T16:14:49.976Z,74.30
2018-07-08T16:17:18.379Z,74.10
2018-07-08T16:19:46.796Z,73.80
2018-07-08T16:22:15.248Z,73.70
2018-07-08T16:24:43.707Z,75.00
2018-07-08T16:27:12.104Z,75.40
2018-07-08T16:29:40.462Z,74.30
2018-07-08T16:32:08.895Z,75.20
2018-07-08T16:34:37.616Z,75.20
2018-07-08T16:37:06.171Z,75.00
2018-07-08T16:39:34.533Z,75.00
2018-07-08T16:42:02.896Z,76.30
2018-07-08T16:44:31.284Z,76.20
2018-07-08T16:46:59.736Z,77.30
2018-07-08T16:49:28.089Z,77.20
2018-07-08T16:51:56.504Z,76.90
2018-07-08T16:54:24.844Z,76.80
2018-07-08T16:56:53.316Z,76.00
2018-07-08T16:59:27.064Z,77.30
2018-07-08T17:01:55.484Z,77.40
2018-07-08T17:04:23.845Z,77.10
2018-07-08T17:06:52.263Z,76.30
2018-07-08T17:09:20.650Z,76.40
2018-07-08T17:11:49.038Z,76.30
2018-07-08T17:14:17.414Z,76.80
2018-07-08T17:16:45.762Z,76.90
2018-07-08T17:19:14.127Z,77.20
2018-07-08T17:21:42.608Z,77.60
2018-07-08T17:24:10.968Z,77.80
2018-07-08T17:26:39.381Z,77.00
2018-07-08T17:31:35.822Z,76.40
2018-07-08T17:34:04.166Z,76.80
2018-07-08T17:36:32.536Z,76.80
2018-07-08T17:39:00.940Z,76.80
2018-07-08T17:41:32.282Z,76.30
2018-07-08T17:44:00.646Z,77.50
2018-07-08T17:46:29.205Z,76.80
2018-07-08T17:48:57.478Z,78.20
2018-07-08T17:51:26.017Z,77.80
2018-07-08T17:53:54.380Z,77.70
2018-07-08T17:56:23.024Z,78.80
2018-07-08T17:58:51.428Z,78.20
2018-07-08T18:01:19.832Z,78.90
2018-07-08T18:03:48.529Z,79.40
2018-07-08T18:06:16.919Z,79.20
2018-07-08T18:08:45.301Z,79.70
2018-07-08T18:11:13.705Z,79.80
2018-07-08T18:13:42.116Z,80.00
2018-07-08T18:16:10.619Z,79.70
2018-07-08T18:18:39.039Z,80.10
2018-07-08T18:21:07.468Z,81.30
2018-07-08T18:23:35.892Z,80.80
2018-07-08T18:26:04.397Z,81.50
2018-07-08T18:28:32.873Z,81.60
2018-07-08T18:31:01.239Z,82.20
2018-07-08T18:33:29.705Z,82.10
2018-07-08T18:35:58.043Z,82.40
2018-07-08T18:38:26.502Z,83.40
2018-07-08T18:40:54.876Z,83.80
2018-07-08T18:43:23.860Z,83.90
2018-07-08T18:45:52.499Z,84.00
2018-07-08T18:48:21.154Z,85.40
2018-07-08T18:50:49.504Z,85.60
2018-07-08T18:53:17.910Z,84.90
2018-07-08T18:55:46.589Z,85.30
2018-07-08T18:58:15.013Z,85.40
2018-07-08T19:00:43.402Z,85.80
2018-07-08T19:03:11.858Z,85.80
2018-07-08T19:05:41.147Z,86.40
2018-07-08T19:08:09.506Z,87.00
2018-07-08T19:10:38.053Z,86.90
2018-07-08T19:13:06.627Z,87.30
2018-07-08T19:15:35.034Z,88.70
2018-07-08T19:18:03.137Z,89.30
2018-07-08T19:20:31.483Z,90.40
2018-07-08T19:22:59.882Z,91.10
2018-07-08T19:25:28.464Z,91.60
2018-07-08T19:27:57.201Z,92.20
2018-07-08T19:30:25.674Z,92.90
2018-07-08T19:32:54.139Z,93.30
2018-07-08T19:35:22.569Z,93.70
2018-07-08T19:37:50.923Z,94.30
2018-07-08T19:40:19.349Z,94.60
2018-07-08T19:42:47.776Z,94.90
2018-07-08T19:45:16.159Z,95.30
2018-07-08T19:47:44.680Z,95.60
2018-07-08T19:50:13.061Z,96.10
2018-07-08T19:52:41.487Z,96.40
2018-07-08T19:55:09.905Z,96.70
2018-07-08T19:57:38.350Z,97.10
2018-07-08T20:00:07.312Z,97.60
2018-07-08T20:02:35.694Z,97.80
2018-07-08T20:05:04.142Z,98.10
2018-07-08T20:07:32.621Z,98.30
2018-07-08T20:10:01.086Z,98.50
2018-07-08T20:12:29.459Z,98.70
2018-07-08T20:14:57.870Z,99.00
2018-07-08T20:17:26.267Z,99.40
2018-07-08T20:19:54.703Z,99.80
2018-07-08T20:22:23.479Z,99.90
2018-07-08T20:24:52.293Z,99.90
2018-07-08T20:27:20.722Z,99.90
2018-07-08T20:29:49.098Z,99.90
2018-07-08T20:32:17.514Z,99.90
2018-07-08T20:34:45.886Z,99.90
2018-07-08T20:37:14.308Z,99.90
2018-07-08T20:39:42.679Z,99.90
2018-07-08T20:42:11.104Z,99.90
2018-07-08T20:44:39.506Z,99.90
2018-07-08T20:47:07.931Z,99.90
2018-07-08T20:49:36.420Z,99.90
2018-07-08T20:52:04.804Z,99.90
2018-07-08T20:54:33.259Z,99.90
2018-07-08T20:57:01.698Z,99.90
2018-07-08T20:59:30.131Z,99.90
2018-07-08T21:01:58.564Z,99.90
2018-07-08T21:04:27.009Z,99.90
2018-07-08T21:06:55.552Z,99.90
2018-07-08T21:09:23.961Z,99.90
2018-07-08T21:11:52.570Z,99.90
2018-07-08T21:14:21.034Z,99.90
2018-07-08T21:16:49.440Z,99.90
2018-07-08T21:19:17.795Z,99.90
2018-07-08T21:21:46.260Z,99.90
2018-07-08T21:24:14.703Z,99.90
2018-07-08T21:26:43.285Z,99.90
2018-07-08T21:29:11.678Z,99.90
2018-07-08T21:31:40.352Z,99.90
2018-07-08T21:34:08.741Z,99.90
2018-07-08T21:36:37.192Z,99.90
2018-07-08T21:39:07.248Z,99.90
2018-07-08T21:41:35.641Z,99.90
2018-07-08T21:44:04.927Z,99.90
2018-07-08T21:46:33.333Z,99.90
2018-07-08T21:49:01.676Z,99.90
2018-07-08T21:51:30.064Z,99.90
2018-07-08T21:56:26.589Z,99.90
2018-07-08T21:58:54.999Z,99.90
2018-07-08T22:01:23.762Z,99.90
2018-07-08T22:03:52.769Z,99.90
2018-07-08T22:06:21.689Z,99.90
2018-07-08T22:08:50.121Z,99.90
2018-07-08T22:11:18.494Z,99.90
2018-07-08T22:13:46.979Z,99.90
2018-07-08T22:16:15.377Z,99.90
2018-07-08T22:18:43.791Z,99.90
2018-07-08T22:21:12.238Z,99.90
2018-07-08T22:23:40.629Z,99.90
2018-07-08T22:26:09.049Z,99.90
2018-07-08T22:28:37.411Z,99.90
2018-07-08T22:31:05.849Z,99.90
2018-07-08T22:33:34.202Z,99.90
2018-07-08T22:36:02.623Z,99.90
2018-07-08T22:38:31.022Z,99.90
2018-07-08T22:40:59.415Z,99.90
2018-07-08T22:43:27.837Z,99.90
2018-07-08T22:45:56.372Z,99.90
2018-07-08T22:48:24.718Z,99.90
2018-07-08T22:50:53.259Z,99.90
2018-07-08T22:53:21.654Z,99.90
2018-07-08T22:55:50.017Z,99.90
2018-07-08T22:58:18.472Z,99.90
2018-07-08T23:00:58.435Z,99.90
2018-07-08T23:03:50.272Z,99.90
2018-07-08T23:06:19.496Z,99.90
2018-07-08T23:08:48.624Z,99.90
2018-07-08T23:11:17.056Z,99.90
2018-07-08T23:13:45.993Z,99.90
2018-07-08T23:16:14.360Z,99.90
2018-07-08T23:21:10.855Z,99.90
2018-07-08T23:23:39.193Z,99.90
2018-07-08T23:26:07.978Z,99.90
2018-07-08T23:28:37.169Z,99.90
2018-07-08T23:31:06.143Z,99.90
2018-07-08T23:33:34.566Z,99.90
2018-07-08T23:36:03.756Z,99.90
2018-07-08T23:38:32.466Z,99.90
2018-07-08T23:41:01.823Z,99.90
2018-07-08T23:45:58.997Z,99.90
2018-07-08T23:48:27.550Z,99.90
2018-07-08T23:50:56.060Z,99.90
2018-07-08T23:53:24.495Z,99.90
2018-07-08T23:55:53.228Z,99.90
2018-07-08T23:58:21.646Z,99.90
